sensor_id;sensor_type;location;lat;lon;timestamp;P1;durP1;ratioP1;P2;durP2;ratioP2
42000;SDS011;27689;48.390;10.856;2022-12-18T00:01:03;67.82;;;31.38;;
42000;SDS011;27689;48.390;10.856;2022-12-18T00:03:50;69.22;;;31.83;;
42000;SDS011;27689;48.390;10.856;2022-12-18T00:06:34;68.95;;;33.90;;
42000;SDS011;27689;48.390;10.856;2022-12-18T00:09:19;70.40;;;33.00;;
42000;SDS011;27689;48.390;10.856;2022-12-18T00:12:04;79.57;;;34.13;;
42000;SDS011;27689;48.390;10.856;2022-12-18T00:14:48;67.97;;;32.33;;
42000;SDS011;27689;48.390;10.856;2022-12-18T00:17:32;69.72;;;32.15;;
42000;SDS011;27689;48.390;10.856;2022-12-18T00:23:06;71.80;;;30.17;;
42000;SDS011;27689;48.390;10.856;2022-12-18T00:25:50;73.97;;;33.00;;
42000;SDS011;27689;48.390;10.856;2022-12-18T00:28:34;64.43;;;31.40;;
42000;SDS011;27689;48.390;10.856;2022-12-18T00:31:19;68.40;;;32.30;;
42000;SDS011;27689;48.390;10.856;2022-12-18T00:34:05;61.45;;;29.40;;
42000;SDS011;27689;48.390;10.856;2022-12-18T00:39:33;59.53;;;27.85;;
42000;SDS011;27689;48.390;10.856;2022-12-18T00:42:17;62.05;;;29.67;;
42000;SDS011;27689;48.390;10.856;2022-12-18T00:45:20;61.25;;;28.88;;
42000;SDS011;27689;48.390;10.856;2022-12-18T00:48:05;64.28;;;30.70;;
42000;SDS011;27689;48.390;10.856;2022-12-18T00:50:49;65.93;;;30.77;;
42000;SDS011;27689;48.390;10.856;2022-12-18T00:53:34;57.95;;;27.98;;
42000;SDS011;27689;48.390;10.856;2022-12-18T00:56:18;61.60;;;29.05;;
42000;SDS011;27689;48.390;10.856;2022-12-18T00:59:05;54.38;;;25.42;;
42000;SDS011;27689;48.390;10.856;2022-12-18T01:01:49;51.92;;;25.50;;
42000;SDS011;27689;48.390;10.856;2022-12-18T01:04:33;56.17;;;26.73;;
42000;SDS011;27689;48.390;10.856;2022-12-18T01:07:17;57.08;;;27.48;;
42000;SDS011;27689;48.390;10.856;2022-12-18T01:10:01;53.83;;;26.67;;
42000;SDS011;27689;48.390;10.856;2022-12-18T01:12:45;54.55;;;25.75;;
42000;SDS011;27689;48.390;10.856;2022-12-18T01:15:29;55.22;;;26.42;;
42000;SDS011;27689;48.390;10.856;2022-12-18T01:18:13;51.42;;;25.80;;
42000;SDS011;27689;48.390;10.856;2022-12-18T01:20:57;57.47;;;25.92;;
42000;SDS011;27689;48.390;10.856;2022-12-18T01:23:44;62.78;;;29.25;;
42000;SDS011;27689;48.390;10.856;2022-12-18T01:26:28;70.03;;;32.25;;
42000;SDS011;27689;48.390;10.856;2022-12-18T01:29:13;65.40;;;30.48;;
42000;SDS011;27689;48.390;10.856;2022-12-18T01:31:57;63.88;;;29.20;;
42000;SDS011;27689;48.390;10.856;2022-12-18T01:34:41;76.70;;;32.38;;
42000;SDS011;27689;48.390;10.856;2022-12-18T01:37:25;72.68;;;32.75;;
42000;SDS011;27689;48.390;10.856;2022-12-18T01:40:09;68.88;;;32.72;;
42000;SDS011;27689;48.390;10.856;2022-12-18T01:45:37;49.63;;;23.95;;
42000;SDS011;27689;48.390;10.856;2022-12-18T01:48:21;52.85;;;26.60;;
42000;SDS011;27689;48.390;10.856;2022-12-18T01:51:06;64.75;;;28.40;;
42000;SDS011;27689;48.390;10.856;2022-12-18T01:53:52;63.38;;;27.75;;
42000;SDS011;27689;48.390;10.856;2022-12-18T01:56:36;66.60;;;29.45;;
42000;SDS011;27689;48.390;10.856;2022-12-18T01:59:20;71.38;;;29.40;;
42000;SDS011;27689;48.390;10.856;2022-12-18T02:02:05;75.53;;;29.48;;
42000;SDS011;27689;48.390;10.856;2022-12-18T02:04:49;68.00;;;30.30;;
42000;SDS011;27689;48.390;10.856;2022-12-18T02:10:40;67.17;;;24.77;;
42000;SDS011;27689;48.390;10.856;2022-12-18T02:13:36;72.07;;;28.83;;
42000;SDS011;27689;48.390;10.856;2022-12-18T02:16:41;68.40;;;29.35;;
42000;SDS011;27689;48.390;10.856;2022-12-18T02:19:42;74.53;;;30.92;;
42000;SDS011;27689;48.390;10.856;2022-12-18T02:26:01;87.30;;;33.03;;
42000;SDS011;27689;48.390;10.856;2022-12-18T02:28:53;88.00;;;33.65;;
42000;SDS011;27689;48.390;10.856;2022-12-18T02:31:43;80.93;;;31.55;;
42000;SDS011;27689;48.390;10.856;2022-12-18T02:34:34;75.93;;;29.98;;
42000;SDS011;27689;48.390;10.856;2022-12-18T02:37:21;76.15;;;30.20;;
42000;SDS011;27689;48.390;10.856;2022-12-18T02:40:08;69.15;;;27.92;;
42000;SDS011;27689;48.390;10.856;2022-12-18T02:42:54;72.78;;;30.00;;
42000;SDS011;27689;48.390;10.856;2022-12-18T02:45:50;89.88;;;30.52;;
42000;SDS011;27689;48.390;10.856;2022-12-18T02:48:37;73.03;;;30.52;;
42000;SDS011;27689;48.390;10.856;2022-12-18T02:51:29;78.50;;;30.73;;
42000;SDS011;27689;48.390;10.856;2022-12-18T02:58:17;60.22;;;24.92;;
42000;SDS011;27689;48.390;10.856;2022-12-18T03:01:19;61.63;;;26.25;;
42000;SDS011;27689;48.390;10.856;2022-12-18T03:04:23;71.40;;;28.40;;
42000;SDS011;27689;48.390;10.856;2022-12-18T03:07:15;71.82;;;27.80;;
42000;SDS011;27689;48.390;10.856;2022-12-18T03:10:03;61.47;;;27.45;;
42000;SDS011;27689;48.390;10.856;2022-12-18T03:12:52;66.07;;;27.67;;
42000;SDS011;27689;48.390;10.856;2022-12-18T03:15:45;66.00;;;27.17;;
42000;SDS011;27689;48.390;10.856;2022-12-18T03:18:34;69.80;;;27.35;;
42000;SDS011;27689;48.390;10.856;2022-12-18T03:21:21;63.30;;;27.50;;
42000;SDS011;27689;48.390;10.856;2022-12-18T03:24:11;53.05;;;25.08;;
42000;SDS011;27689;48.390;10.856;2022-12-18T03:26:57;59.60;;;27.02;;
42000;SDS011;27689;48.390;10.856;2022-12-18T03:29:47;59.10;;;24.67;;
42000;SDS011;27689;48.390;10.856;2022-12-18T03:32:39;58.30;;;25.10;;
42000;SDS011;27689;48.390;10.856;2022-12-18T03:35:39;49.13;;;22.75;;
42000;SDS011;27689;48.390;10.856;2022-12-18T03:38:26;57.03;;;23.38;;
42000;SDS011;27689;48.390;10.856;2022-12-18T03:44:00;52.85;;;22.58;;
42000;SDS011;27689;48.390;10.856;2022-12-18T03:48:13;56.70;;;23.98;;
42000;SDS011;27689;48.390;10.856;2022-12-18T03:50:45;56.65;;;23.50;;
42000;SDS011;27689;48.390;10.856;2022-12-18T03:53:40;51.97;;;21.02;;
42000;SDS011;27689;48.390;10.856;2022-12-18T03:56:34;57.88;;;23.02;;
42000;SDS011;27689;48.390;10.856;2022-12-18T03:59:23;55.35;;;23.42;;
42000;SDS011;27689;48.390;10.856;2022-12-18T04:02:10;56.35;;;24.83;;
42000;SDS011;27689;48.390;10.856;2022-12-18T04:04:56;53.92;;;23.33;;
42000;SDS011;27689;48.390;10.856;2022-12-18T04:07:43;58.42;;;24.20;;
42000;SDS011;27689;48.390;10.856;2022-12-18T04:10:29;45.40;;;21.05;;
42000;SDS011;27689;48.390;10.856;2022-12-18T04:13:21;53.33;;;22.13;;
42000;SDS011;27689;48.390;10.856;2022-12-18T04:16:10;58.90;;;22.58;;
42000;SDS011;27689;48.390;10.856;2022-12-18T04:18:54;60.03;;;24.88;;
42000;SDS011;27689;48.390;10.856;2022-12-18T04:21:38;60.30;;;23.40;;
42000;SDS011;27689;48.390;10.856;2022-12-18T04:24:22;58.03;;;24.10;;
42000;SDS011;27689;48.390;10.856;2022-12-18T04:27:06;60.40;;;24.48;;
42000;SDS011;27689;48.390;10.856;2022-12-18T04:29:50;49.65;;;22.15;;
42000;SDS011;27689;48.390;10.856;2022-12-18T04:32:35;56.20;;;24.08;;
42000;SDS011;27689;48.390;10.856;2022-12-18T04:35:18;43.45;;;18.95;;
42000;SDS011;27689;48.390;10.856;2022-12-18T04:38:03;49.28;;;22.88;;
42000;SDS011;27689;48.390;10.856;2022-12-18T04:40:47;51.72;;;23.55;;
42000;SDS011;27689;48.390;10.856;2022-12-18T04:43:30;57.28;;;24.50;;
42000;SDS011;27689;48.390;10.856;2022-12-18T04:46:16;55.97;;;23.23;;
42000;SDS011;27689;48.390;10.856;2022-12-18T04:49:00;58.47;;;23.52;;
42000;SDS011;27689;48.390;10.856;2022-12-18T04:51:44;55.88;;;23.00;;
42000;SDS011;27689;48.390;10.856;2022-12-18T04:54:28;55.75;;;24.67;;
42000;SDS011;27689;48.390;10.856;2022-12-18T04:57:12;64.95;;;24.65;;
42000;SDS011;27689;48.390;10.856;2022-12-18T04:59:56;54.30;;;23.35;;
42000;SDS011;27689;48.390;10.856;2022-12-18T05:02:39;58.33;;;25.10;;
42000;SDS011;27689;48.390;10.856;2022-12-18T05:05:23;53.38;;;23.63;;
42000;SDS011;27689;48.390;10.856;2022-12-18T05:08:07;51.40;;;22.60;;
42000;SDS011;27689;48.390;10.856;2022-12-18T05:11:01;53.95;;;24.85;;
42000;SDS011;27689;48.390;10.856;2022-12-18T05:13:47;53.95;;;23.25;;
42000;SDS011;27689;48.390;10.856;2022-12-18T05:16:31;52.47;;;24.92;;
42000;SDS011;27689;48.390;10.856;2022-12-18T05:19:16;62.92;;;25.85;;
42000;SDS011;27689;48.390;10.856;2022-12-18T05:22:00;54.78;;;25.38;;
42000;SDS011;27689;48.390;10.856;2022-12-18T05:24:45;52.00;;;23.48;;
42000;SDS011;27689;48.390;10.856;2022-12-18T05:27:29;58.17;;;25.77;;
42000;SDS011;27689;48.390;10.856;2022-12-18T05:30:13;62.28;;;26.55;;
42000;SDS011;27689;48.390;10.856;2022-12-18T05:32:57;60.30;;;24.00;;
42000;SDS011;27689;48.390;10.856;2022-12-18T05:35:41;62.25;;;24.80;;
42000;SDS011;27689;48.390;10.856;2022-12-18T05:38:26;56.75;;;23.73;;
42000;SDS011;27689;48.390;10.856;2022-12-18T05:41:10;52.20;;;24.65;;
42000;SDS011;27689;48.390;10.856;2022-12-18T05:43:54;51.35;;;23.50;;
42000;SDS011;27689;48.390;10.856;2022-12-18T05:46:38;53.25;;;23.38;;
42000;SDS011;27689;48.390;10.856;2022-12-18T05:49:22;58.50;;;24.23;;
42000;SDS011;27689;48.390;10.856;2022-12-18T05:52:06;48.65;;;20.58;;
42000;SDS011;27689;48.390;10.856;2022-12-18T05:54:50;53.83;;;23.52;;
42000;SDS011;27689;48.390;10.856;2022-12-18T05:57:34;57.47;;;23.73;;
42000;SDS011;27689;48.390;10.856;2022-12-18T06:00:18;56.17;;;24.48;;
42000;SDS011;27689;48.390;10.856;2022-12-18T06:03:01;55.83;;;24.70;;
42000;SDS011;27689;48.390;10.856;2022-12-18T06:05:45;56.45;;;24.90;;
42000;SDS011;27689;48.390;10.856;2022-12-18T06:08:29;63.75;;;27.85;;
42000;SDS011;27689;48.390;10.856;2022-12-18T06:11:15;61.20;;;26.13;;
42000;SDS011;27689;48.390;10.856;2022-12-18T06:14:01;65.93;;;27.60;;
42000;SDS011;27689;48.390;10.856;2022-12-18T06:16:47;64.45;;;24.80;;
42000;SDS011;27689;48.390;10.856;2022-12-18T06:19:31;55.58;;;24.17;;
42000;SDS011;27689;48.390;10.856;2022-12-18T06:22:15;60.15;;;25.52;;
42000;SDS011;27689;48.390;10.856;2022-12-18T06:24:58;65.75;;;27.48;;
42000;SDS011;27689;48.390;10.856;2022-12-18T06:27:42;57.90;;;24.55;;
42000;SDS011;27689;48.390;10.856;2022-12-18T06:30:26;60.95;;;24.90;;
42000;SDS011;27689;48.390;10.856;2022-12-18T06:33:10;57.83;;;22.55;;
42000;SDS011;27689;48.390;10.856;2022-12-18T06:35:59;56.58;;;24.35;;
42000;SDS011;27689;48.390;10.856;2022-12-18T06:38:44;56.75;;;23.65;;
42000;SDS011;27689;48.390;10.856;2022-12-18T06:41:28;53.45;;;23.58;;
42000;SDS011;27689;48.390;10.856;2022-12-18T06:44:12;60.05;;;25.35;;
42000;SDS011;27689;48.390;10.856;2022-12-18T06:46:56;55.13;;;24.92;;
42000;SDS011;27689;48.390;10.856;2022-12-18T06:49:40;64.15;;;26.35;;
42000;SDS011;27689;48.390;10.856;2022-12-18T06:52:24;59.95;;;25.92;;
42000;SDS011;27689;48.390;10.856;2022-12-18T06:55:08;60.25;;;25.45;;
42000;SDS011;27689;48.390;10.856;2022-12-18T06:57:52;56.95;;;25.33;;
42000;SDS011;27689;48.390;10.856;2022-12-18T07:00:36;61.08;;;26.35;;
42000;SDS011;27689;48.390;10.856;2022-12-18T07:03:20;51.65;;;23.23;;
42000;SDS011;27689;48.390;10.856;2022-12-18T07:06:04;51.70;;;23.30;;
42000;SDS011;27689;48.390;10.856;2022-12-18T07:08:50;58.03;;;26.83;;
42000;SDS011;27689;48.390;10.856;2022-12-18T07:11:35;49.85;;;24.95;;
42000;SDS011;27689;48.390;10.856;2022-12-18T07:14:19;59.17;;;25.95;;
42000;SDS011;27689;48.390;10.856;2022-12-18T07:17:02;52.35;;;24.77;;
42000;SDS011;27689;48.390;10.856;2022-12-18T07:19:47;57.65;;;25.20;;
42000;SDS011;27689;48.390;10.856;2022-12-18T07:22:30;43.00;;;18.48;;
42000;SDS011;27689;48.390;10.856;2022-12-18T07:25:14;55.55;;;25.35;;
42000;SDS011;27689;48.390;10.856;2022-12-18T07:27:58;60.47;;;23.92;;
42000;SDS011;27689;48.390;10.856;2022-12-18T07:30:42;57.30;;;24.70;;
42000;SDS011;27689;48.390;10.856;2022-12-18T07:33:26;41.05;;;18.73;;
42000;SDS011;27689;48.390;10.856;2022-12-18T07:36:10;51.13;;;22.33;;
42000;SDS011;27689;48.390;10.856;2022-12-18T07:38:55;55.10;;;24.02;;
42000;SDS011;27689;48.390;10.856;2022-12-18T07:41:39;46.88;;;22.48;;
42000;SDS011;27689;48.390;10.856;2022-12-18T07:44:44;51.78;;;24.75;;
42000;SDS011;27689;48.390;10.856;2022-12-18T07:47:28;52.08;;;23.10;;
42000;SDS011;27689;48.390;10.856;2022-12-18T07:50:17;48.00;;;21.40;;
42000;SDS011;27689;48.390;10.856;2022-12-18T07:53:01;55.30;;;23.10;;
42000;SDS011;27689;48.390;10.856;2022-12-18T07:55:48;61.95;;;26.02;;
42000;SDS011;27689;48.390;10.856;2022-12-18T07:58:34;59.80;;;26.52;;
42000;SDS011;27689;48.390;10.856;2022-12-18T08:01:18;50.78;;;23.77;;
42000;SDS011;27689;48.390;10.856;2022-12-18T08:04:02;52.25;;;23.88;;
42000;SDS011;27689;48.390;10.856;2022-12-18T08:06:46;53.72;;;24.95;;
42000;SDS011;27689;48.390;10.856;2022-12-18T08:09:30;61.67;;;28.20;;
42000;SDS011;27689;48.390;10.856;2022-12-18T08:12:14;53.38;;;25.25;;
42000;SDS011;27689;48.390;10.856;2022-12-18T08:14:58;51.47;;;24.00;;
42000;SDS011;27689;48.390;10.856;2022-12-18T08:17:42;49.45;;;23.67;;
42000;SDS011;27689;48.390;10.856;2022-12-18T08:20:26;54.95;;;24.92;;
42000;SDS011;27689;48.390;10.856;2022-12-18T08:23:10;55.08;;;24.73;;
42000;SDS011;27689;48.390;10.856;2022-12-18T08:25:54;50.70;;;24.50;;
42000;SDS011;27689;48.390;10.856;2022-12-18T08:28:38;49.28;;;22.88;;
42000;SDS011;27689;48.390;10.856;2022-12-18T08:31:23;52.40;;;24.80;;
42000;SDS011;27689;48.390;10.856;2022-12-18T08:34:08;53.20;;;24.30;;
42000;SDS011;27689;48.390;10.856;2022-12-18T08:36:52;56.85;;;25.98;;
42000;SDS011;27689;48.390;10.856;2022-12-18T08:39:36;56.55;;;29.10;;
42000;SDS011;27689;48.390;10.856;2022-12-18T08:42:20;52.38;;;24.63;;
42000;SDS011;27689;48.390;10.856;2022-12-18T08:45:23;51.80;;;26.17;;
42000;SDS011;27689;48.390;10.856;2022-12-18T08:48:08;47.47;;;23.52;;
42000;SDS011;27689;48.390;10.856;2022-12-18T08:50:55;54.03;;;23.50;;
42000;SDS011;27689;48.390;10.856;2022-12-18T08:53:40;49.88;;;23.42;;
42000;SDS011;27689;48.390;10.856;2022-12-18T08:56:24;51.67;;;25.65;;
42000;SDS011;27689;48.390;10.856;2022-12-18T08:59:08;53.67;;;25.90;;
42000;SDS011;27689;48.390;10.856;2022-12-18T09:01:53;56.60;;;26.42;;
42000;SDS011;27689;48.390;10.856;2022-12-18T09:04:37;50.08;;;24.27;;
42000;SDS011;27689;48.390;10.856;2022-12-18T09:07:23;55.80;;;24.83;;
42000;SDS011;27689;48.390;10.856;2022-12-18T09:10:07;49.13;;;22.95;;
42000;SDS011;27689;48.390;10.856;2022-12-18T09:12:51;54.92;;;24.52;;
42000;SDS011;27689;48.390;10.856;2022-12-18T09:15:39;62.63;;;27.65;;
42000;SDS011;27689;48.390;10.856;2022-12-18T09:18:25;49.03;;;24.55;;
42000;SDS011;27689;48.390;10.856;2022-12-18T09:21:10;60.97;;;27.15;;
42000;SDS011;27689;48.390;10.856;2022-12-18T09:23:55;53.30;;;24.80;;
42000;SDS011;27689;48.390;10.856;2022-12-18T09:26:40;55.72;;;24.77;;
42000;SDS011;27689;48.390;10.856;2022-12-18T09:29:24;61.40;;;24.85;;
42000;SDS011;27689;48.390;10.856;2022-12-18T09:32:08;53.67;;;24.58;;
42000;SDS011;27689;48.390;10.856;2022-12-18T09:37:36;37.95;;;16.73;;
42000;SDS011;27689;48.390;10.856;2022-12-18T09:40:21;48.17;;;23.33;;
42000;SDS011;27689;48.390;10.856;2022-12-18T09:43:09;52.25;;;23.30;;
42000;SDS011;27689;48.390;10.856;2022-12-18T09:46:03;51.40;;;23.25;;
42000;SDS011;27689;48.390;10.856;2022-12-18T09:48:51;52.42;;;25.50;;
42000;SDS011;27689;48.390;10.856;2022-12-18T09:54:59;48.05;;;22.88;;
42000;SDS011;27689;48.390;10.856;2022-12-18T09:57:57;44.38;;;21.92;;
42000;SDS011;27689;48.390;10.856;2022-12-18T10:00:51;50.78;;;24.02;;
42000;SDS011;27689;48.390;10.856;2022-12-18T10:03:35;52.08;;;24.35;;
42000;SDS011;27689;48.390;10.856;2022-12-18T10:06:27;53.75;;;25.20;;
42000;SDS011;27689;48.390;10.856;2022-12-18T10:15:17;62.60;;;25.95;;
42000;SDS011;27689;48.390;10.856;2022-12-18T10:18:22;104.10;;;49.13;;
42000;SDS011;27689;48.390;10.856;2022-12-18T10:21:09;68.95;;;29.77;;
42000;SDS011;27689;48.390;10.856;2022-12-18T10:26:59;54.78;;;24.60;;
42000;SDS011;27689;48.390;10.856;2022-12-18T10:29:58;67.72;;;28.92;;
42000;SDS011;27689;48.390;10.856;2022-12-18T10:32:44;66.40;;;28.60;;
42000;SDS011;27689;48.390;10.856;2022-12-18T10:35:28;63.03;;;27.30;;
42000;SDS011;27689;48.390;10.856;2022-12-18T10:40:57;63.35;;;27.85;;
42000;SDS011;27689;48.390;10.856;2022-12-18T10:43:42;56.60;;;25.73;;
42000;SDS011;27689;48.390;10.856;2022-12-18T10:46:26;79.05;;;40.00;;
42000;SDS011;27689;48.390;10.856;2022-12-18T10:55:04;48.75;;;24.42;;
42000;SDS011;27689;48.390;10.856;2022-12-18T10:57:49;57.92;;;28.42;;
42000;SDS011;27689;48.390;10.856;2022-12-18T11:00:33;55.42;;;25.63;;
42000;SDS011;27689;48.390;10.856;2022-12-18T11:06:26;48.65;;;24.15;;
42000;SDS011;27689;48.390;10.856;2022-12-18T11:12:14;53.40;;;27.70;;
42000;SDS011;27689;48.390;10.856;2022-12-18T11:15:00;57.70;;;26.38;;
42000;SDS011;27689;48.390;10.856;2022-12-18T11:17:44;53.88;;;25.40;;
42000;SDS011;27689;48.390;10.856;2022-12-18T11:20:32;62.92;;;29.08;;
42000;SDS011;27689;48.390;10.856;2022-12-18T11:23:18;62.97;;;30.67;;
42000;SDS011;27689;48.390;10.856;2022-12-18T11:26:06;69.03;;;33.22;;
42000;SDS011;27689;48.390;10.856;2022-12-18T11:28:51;57.35;;;25.65;;
42000;SDS011;27689;48.390;10.856;2022-12-18T11:31:51;56.00;;;25.90;;
42000;SDS011;27689;48.390;10.856;2022-12-18T11:35:01;55.88;;;28.15;;
42000;SDS011;27689;48.390;10.856;2022-12-18T11:38:04;58.22;;;28.80;;
42000;SDS011;27689;48.390;10.856;2022-12-18T11:41:14;58.85;;;27.00;;
42000;SDS011;27689;48.390;10.856;2022-12-18T11:44:05;57.50;;;27.20;;
42000;SDS011;27689;48.390;10.856;2022-12-18T11:47:00;60.58;;;28.70;;
42000;SDS011;27689;48.390;10.856;2022-12-18T11:49:51;54.22;;;24.80;;
42000;SDS011;27689;48.390;10.856;2022-12-18T11:52:38;58.88;;;27.00;;
42000;SDS011;27689;48.390;10.856;2022-12-18T11:55:33;53.50;;;24.77;;
42000;SDS011;27689;48.390;10.856;2022-12-18T12:01:17;56.80;;;27.27;;
42000;SDS011;27689;48.390;10.856;2022-12-18T12:07:33;54.55;;;25.23;;
42000;SDS011;27689;48.390;10.856;2022-12-18T12:10:49;57.25;;;26.10;;
42000;SDS011;27689;48.390;10.856;2022-12-18T12:14:03;56.85;;;27.08;;
42000;SDS011;27689;48.390;10.856;2022-12-18T12:17:22;62.75;;;25.17;;
42000;SDS011;27689;48.390;10.856;2022-12-18T12:20:25;57.38;;;26.05;;
42000;SDS011;27689;48.390;10.856;2022-12-18T12:24:12;53.53;;;25.08;;
42000;SDS011;27689;48.390;10.856;2022-12-18T12:29:50;54.25;;;26.20;;
42000;SDS011;27689;48.390;10.856;2022-12-18T12:36:08;63.15;;;28.17;;
42000;SDS011;27689;48.390;10.856;2022-12-18T12:38:57;58.58;;;26.80;;
42000;SDS011;27689;48.390;10.856;2022-12-18T12:41:49;58.33;;;26.15;;
42000;SDS011;27689;48.390;10.856;2022-12-18T12:44:53;60.10;;;26.52;;
42000;SDS011;27689;48.390;10.856;2022-12-18T12:47:41;61.15;;;26.85;;
42000;SDS011;27689;48.390;10.856;2022-12-18T12:50:28;54.20;;;27.15;;
42000;SDS011;27689;48.390;10.856;2022-12-18T12:53:21;63.63;;;30.33;;
42000;SDS011;27689;48.390;10.856;2022-12-18T12:56:10;83.03;;;35.63;;
42000;SDS011;27689;48.390;10.856;2022-12-18T12:59:02;60.33;;;27.38;;
42000;SDS011;27689;48.390;10.856;2022-12-18T13:02:09;62.97;;;29.20;;
42000;SDS011;27689;48.390;10.856;2022-12-18T13:05:17;51.47;;;25.92;;
42000;SDS011;27689;48.390;10.856;2022-12-18T13:08:28;63.65;;;28.85;;
42000;SDS011;27689;48.390;10.856;2022-12-18T13:11:27;55.67;;;24.73;;
42000;SDS011;27689;48.390;10.856;2022-12-18T13:20:50;53.70;;;23.88;;
42000;SDS011;27689;48.390;10.856;2022-12-18T13:23:46;60.40;;;25.73;;
42000;SDS011;27689;48.390;10.856;2022-12-18T13:26:31;53.78;;;26.17;;
42000;SDS011;27689;48.390;10.856;2022-12-18T13:29:40;50.13;;;24.08;;
42000;SDS011;27689;48.390;10.856;2022-12-18T13:32:27;51.88;;;25.48;;
42000;SDS011;27689;48.390;10.856;2022-12-18T13:35:37;58.35;;;26.40;;
42000;SDS011;27689;48.390;10.856;2022-12-18T13:38:32;48.40;;;23.17;;
42000;SDS011;27689;48.390;10.856;2022-12-18T13:41:26;48.80;;;24.23;;
42000;SDS011;27689;48.390;10.856;2022-12-18T13:47:32;50.53;;;24.42;;
42000;SDS011;27689;48.390;10.856;2022-12-18T13:50:23;61.83;;;27.20;;
42000;SDS011;27689;48.390;10.856;2022-12-18T13:53:15;54.35;;;25.70;;
42000;SDS011;27689;48.390;10.856;2022-12-18T13:56:07;53.63;;;26.15;;
42000;SDS011;27689;48.390;10.856;2022-12-18T14:01:58;48.97;;;22.98;;
42000;SDS011;27689;48.390;10.856;2022-12-18T14:05:03;50.97;;;24.63;;
42000;SDS011;27689;48.390;10.856;2022-12-18T14:07:47;51.70;;;23.48;;
42000;SDS011;27689;48.390;10.856;2022-12-18T14:10:31;52.72;;;25.65;;
42000;SDS011;27689;48.390;10.856;2022-12-18T14:13:38;56.72;;;27.38;;
42000;SDS011;27689;48.390;10.856;2022-12-18T14:16:24;48.20;;;23.23;;
42000;SDS011;27689;48.390;10.856;2022-12-18T14:19:17;51.30;;;24.92;;
42000;SDS011;27689;48.390;10.856;2022-12-18T14:22:02;55.38;;;25.48;;
42000;SDS011;27689;48.390;10.856;2022-12-18T14:24:46;52.40;;;25.25;;
42000;SDS011;27689;48.390;10.856;2022-12-18T14:28:12;55.88;;;25.88;;
42000;SDS011;27689;48.390;10.856;2022-12-18T14:30:51;52.53;;;24.58;;
42000;SDS011;27689;48.390;10.856;2022-12-18T14:33:36;52.35;;;24.30;;
42000;SDS011;27689;48.390;10.856;2022-12-18T14:36:23;50.30;;;25.42;;
42000;SDS011;27689;48.390;10.856;2022-12-18T14:39:13;52.13;;;23.65;;
42000;SDS011;27689;48.390;10.856;2022-12-18T14:42:00;59.90;;;27.63;;
42000;SDS011;27689;48.390;10.856;2022-12-18T14:44:44;63.03;;;26.67;;
42000;SDS011;27689;48.390;10.856;2022-12-18T14:47:28;59.15;;;26.65;;
42000;SDS011;27689;48.390;10.856;2022-12-18T14:50:13;46.17;;;22.83;;
42000;SDS011;27689;48.390;10.856;2022-12-18T14:52:57;59.03;;;27.02;;
42000;SDS011;27689;48.390;10.856;2022-12-18T14:55:44;60.55;;;25.67;;
42000;SDS011;27689;48.390;10.856;2022-12-18T14:58:33;56.58;;;23.92;;
42000;SDS011;27689;48.390;10.856;2022-12-18T15:04:04;56.28;;;25.17;;
42000;SDS011;27689;48.390;10.856;2022-12-18T15:10:03;60.10;;;27.05;;
42000;SDS011;27689;48.390;10.856;2022-12-18T15:18:32;56.58;;;24.88;;
42000;SDS011;27689;48.390;10.856;2022-12-18T15:21:24;50.65;;;24.58;;
42000;SDS011;27689;48.390;10.856;2022-12-18T15:24:15;43.75;;;21.90;;
42000;SDS011;27689;48.390;10.856;2022-12-18T15:27:01;51.53;;;24.83;;
42000;SDS011;27689;48.390;10.856;2022-12-18T15:29:58;53.78;;;24.95;;
42000;SDS011;27689;48.390;10.856;2022-12-18T15:32:46;63.83;;;29.23;;
42000;SDS011;27689;48.390;10.856;2022-12-18T15:35:30;55.47;;;25.05;;
42000;SDS011;27689;48.390;10.856;2022-12-18T15:38:14;56.58;;;25.25;;
42000;SDS011;27689;48.390;10.856;2022-12-18T15:40:59;61.42;;;26.15;;
42000;SDS011;27689;48.390;10.856;2022-12-18T15:43:43;63.25;;;27.77;;
42000;SDS011;27689;48.390;10.856;2022-12-18T15:46:29;56.53;;;25.45;;
42000;SDS011;27689;48.390;10.856;2022-12-18T15:49:14;69.50;;;29.73;;
42000;SDS011;27689;48.390;10.856;2022-12-18T15:51:58;70.38;;;29.67;;
42000;SDS011;27689;48.390;10.856;2022-12-18T15:54:43;73.75;;;30.48;;
42000;SDS011;27689;48.390;10.856;2022-12-18T15:57:46;73.90;;;31.48;;
42000;SDS011;27689;48.390;10.856;2022-12-18T16:00:31;68.95;;;27.98;;
42000;SDS011;27689;48.390;10.856;2022-12-18T16:03:16;64.55;;;28.60;;
42000;SDS011;27689;48.390;10.856;2022-12-18T16:06:00;65.07;;;27.73;;
42000;SDS011;27689;48.390;10.856;2022-12-18T16:08:45;67.30;;;29.40;;
42000;SDS011;27689;48.390;10.856;2022-12-18T16:11:30;64.30;;;27.30;;
42000;SDS011;27689;48.390;10.856;2022-12-18T16:14:22;69.10;;;28.55;;
42000;SDS011;27689;48.390;10.856;2022-12-18T16:17:11;69.25;;;30.42;;
42000;SDS011;27689;48.390;10.856;2022-12-18T16:19:56;66.30;;;28.20;;
42000;SDS011;27689;48.390;10.856;2022-12-18T16:22:40;66.95;;;29.48;;
42000;SDS011;27689;48.390;10.856;2022-12-18T16:25:27;62.03;;;26.88;;
42000;SDS011;27689;48.390;10.856;2022-12-18T16:28:11;63.63;;;27.13;;
42000;SDS011;27689;48.390;10.856;2022-12-18T16:30:55;69.43;;;29.02;;
42000;SDS011;27689;48.390;10.856;2022-12-18T16:36:23;63.28;;;27.42;;
42000;SDS011;27689;48.390;10.856;2022-12-18T16:39:07;58.90;;;25.98;;
42000;SDS011;27689;48.390;10.856;2022-12-18T16:41:51;64.43;;;27.20;;
42000;SDS011;27689;48.390;10.856;2022-12-18T16:44:35;67.53;;;27.73;;
42000;SDS011;27689;48.390;10.856;2022-12-18T16:47:19;63.35;;;27.13;;
42000;SDS011;27689;48.390;10.856;2022-12-18T16:52:48;67.05;;;27.27;;
42000;SDS011;27689;48.390;10.856;2022-12-18T16:55:32;65.95;;;27.85;;
42000;SDS011;27689;48.390;10.856;2022-12-18T16:58:16;65.22;;;26.98;;
42000;SDS011;27689;48.390;10.856;2022-12-18T17:01:01;63.92;;;26.38;;
42000;SDS011;27689;48.390;10.856;2022-12-18T17:03:50;62.38;;;27.13;;
42000;SDS011;27689;48.390;10.856;2022-12-18T17:06:39;56.28;;;27.02;;
42000;SDS011;27689;48.390;10.856;2022-12-18T17:09:25;64.75;;;27.58;;
42000;SDS011;27689;48.390;10.856;2022-12-18T17:12:09;62.53;;;26.80;;
42000;SDS011;27689;48.390;10.856;2022-12-18T17:17:37;68.35;;;27.02;;
42000;SDS011;27689;48.390;10.856;2022-12-18T17:20:21;65.93;;;28.85;;
42000;SDS011;27689;48.390;10.856;2022-12-18T17:23:05;66.45;;;28.77;;
42000;SDS011;27689;48.390;10.856;2022-12-18T17:25:49;69.45;;;29.40;;
42000;SDS011;27689;48.390;10.856;2022-12-18T17:28:38;71.28;;;29.55;;
42000;SDS011;27689;48.390;10.856;2022-12-18T17:31:24;68.35;;;27.48;;
42000;SDS011;27689;48.390;10.856;2022-12-18T17:34:10;73.60;;;29.55;;
42000;SDS011;27689;48.390;10.856;2022-12-18T17:36:55;67.47;;;30.33;;
42000;SDS011;27689;48.390;10.856;2022-12-18T17:39:39;60.83;;;27.17;;
42000;SDS011;27689;48.390;10.856;2022-12-18T17:42:24;69.80;;;30.02;;
42000;SDS011;27689;48.390;10.856;2022-12-18T17:45:09;73.22;;;31.40;;